VORY

Details ICAO VORY (RJA)
Name RAJAHMUNDRY
Region India
Timezone Asia/Kolkata (UTC+5.5)
Plans Departing 2
Arriving 6
Stats Elevation 151 ft / 46 m (AMSL)
Location 17.110361° 81.818209°
Runways 1
Magnetic Variation 0.644° W
Sunrise 2018-05-27 00:00:02 UTC / 2018-05-27 05:30:02 Local
Sunset 2018-05-27 13:02:34 UTC / 2018-05-27 18:32:34 Local
Advertisement - Login to hide

Runways

ID Width Length Bearing (true) Bearing (mag) Surface Threshold Offset Overrun Length
05 150 ft / 46 m 5,714 ft / 1,742 m 53.53° 54.17° Asphalt 0 ft / 0 m 0 ft / 0 m
23 150 ft / 46 m 5,714 ft / 1,742 m 233.54° 234.18° Asphalt 0 ft / 0 m 0 ft / 0 m

Map

Weather


0- 5 10 15 20 25 30 35+ Temperature / ° C

Clouds and Precipitation
Forecast for 2018-05-27 00:00 UTC. Updated 3 hours ago

Ground ~20,000 ft ~40,000 ft Winds

METAR

VORY 270200Z 00000KT 6000 FEW020 31/25 Q1005 NOSIG

TAF

Not found

Frequencies

Tower 122.30 MHz TWR
Warning: Do not use this data for real-world aviation or navigation. No guarantee of current accuracy is given.